Big Bend National Park, Texas
Current Conditions -  °F | °C
As of 9:55 AM on Sunday 25 Jan 2015 (Local Time) from KPRS Reporting Station
Clear Clear  
Wind Chill: 45°   Ceiling: Unl
Heat Index: 45°   Visibility: 10mi
Dew Point: 32°   Wind: 3mph
Humidity: 61%   Direction: 330°NNW
Pressure: 30.26"   Gusts: NA
Location:  29.2813°N, 103.166°W
Report Text: KPRS 251555Z AUTO 33003KT 10SM CLR 07/00 A3026 RMK AO2 T00720002
Loading
Personal Weather Stations






























Interactive Weather Map New forecast layout! Learn more

10-Day Weather Forecast

Advertisements
Track Severe Weather on mobile